Main page
METAR-TAF:

METAR-TAF

Airports :

McAllen Miller International Airport

McAllen, Texas, United States

latitude: 26-10-47N, longitude: 098-14-40W, elevation: 105 ft

Current weather observation

The report was made 47 minutes ago, at 03:53 UTC
Wind 8 mph from the Southeast
Temperature 48°F
Humidity 71%
Pressure 30.28 in. Hg
Visibility: 10 miles
Clear sky

METAR: KMFE 210353Z 14007KT 10SM CLR 09/04 A3028 RMK AO2 SLP252 T00940044 $

Time: 22:40 (04:40 UTC)

Forecast

The report was made 5 hours and 13 minutes ago, at 23:27 UTC
Forecast valid from 21 at 00 UTC to 21 at 24 UTC
Wind 7 mph from the East
Visibility: 6 miles
Clear sky
From 21 at 1700 UTC
Wind 17 mph from the South/Southeast with gusts up to 23 mph
Visibility: 6 miles
Clear sky

TAF: KMFE 202327Z 2100/2124 08006KT P6SM SKC FM211700 15015G20KT P6SM SKC

Weather observations and forecasts of more than 4000 airports (METAR and TAF reports).

The available stations are represented by yellow and red dots on the map.

Hover mouse over dot to see the name of the station.

Then click to see weather observations and forecasts.

To change the map : click on the green buttons with a black cross to zoom in, on the green button with a dash to zoom out, or on the green arrows for adjacent maps.


METAR-TAF: